Terminal Aerodrome Forecast
Issued by NWS

Home | Current Version | Previous Version | Text Only | Print | Product List | Glossary On
Versions: 1 2 3 4 5 6 7 8 9 10 11 12 13 14 15 16 17 18 19 20 21
000
FTUS44 KHGX 191603 AAA
TAFCXO
TAF AMD
KCXO 191603Z 1916/2012 16006KT P6SM BKN005 OVC100
      TEMPO 1916/1918 -RA
     FM191800 23005KT P6SM BKN007 BKN015
     FM192100 21005KT P6SM BKN025
     FM200200 VRB04KT 4SM BR BKN010
     FM200600 VRB04KT 2SM BR OVC007
      TEMPO 2009/2012 1/2SM FG OVC002=

USA.gov is the U.S. government's official web portal to all federal, state and local government web resources and services.